sensor_id;sensor_type;location;lat;lon;timestamp;pressure;altitude;pressure_sealevel;temperature;humidity
76052;BME280;64751;48.708;9.710;2023-06-22T14:32:47;97265.59;;;28.97;51.90
76052;BME280;64751;48.708;9.710;2023-06-22T14:35:14;97259.75;;;28.99;51.50
76052;BME280;64751;48.708;9.710;2023-06-22T14:37:42;97252.41;;;28.96;51.95
76052;BME280;64751;48.708;9.710;2023-06-22T14:40:11;97246.63;;;28.94;53.41
76052;BME280;64751;48.708;9.710;2023-06-22T14:42:38;97249.41;;;28.87;55.81
76052;BME280;64751;48.708;9.710;2023-06-22T14:45:07;97240.94;;;28.78;53.32
76052;BME280;64751;48.708;9.710;2023-06-22T14:47:34;97237.06;;;28.75;56.24
76052;BME280;64751;48.708;9.710;2023-06-22T14:50:04;97242.88;;;28.81;61.30
76052;BME280;64751;48.708;9.710;2023-06-22T14:52:31;97251.72;;;28.88;59.43
76052;BME280;64751;48.708;9.710;2023-06-22T14:54:59;97258.19;;;29.01;59.44
76052;BME280;64751;48.708;9.710;2023-06-22T14:57:26;97262.75;;;29.11;61.69
76052;BME280;64751;48.708;9.710;2023-06-22T14:59:54;97259.16;;;29.21;56.28
76052;BME280;64751;48.708;9.710;2023-06-22T15:02:21;97255.53;;;29.35;52.56
76052;BME280;64751;48.708;9.710;2023-06-22T15:04:49;97256.22;;;29.42;48.96
76052;BME280;64751;48.708;9.710;2023-06-22T15:07:20;97255.00;;;29.47;48.02
76052;BME280;64751;48.708;9.710;2023-06-22T15:09:48;97261.22;;;29.48;44.95
76052;BME280;64751;48.708;9.710;2023-06-22T15:12:15;97258.16;;;29.42;45.76
76052;BME280;64751;48.708;9.710;2023-06-22T15:14:43;97257.06;;;29.36;43.65
76052;BME280;64751;48.708;9.710;2023-06-22T15:17:10;97258.28;;;29.31;43.74
76052;BME280;64751;48.708;9.710;2023-06-22T15:19:40;97260.72;;;29.22;45.50
76052;BME280;64751;48.708;9.710;2023-06-22T15:22:08;97264.66;;;29.18;44.21
76052;BME280;64751;48.708;9.710;2023-06-22T15:24:37;97256.91;;;29.13;44.21
76052;BME280;64751;48.708;9.710;2023-06-22T15:27:04;97251.06;;;29.18;46.72
76052;BME280;64751;48.708;9.710;2023-06-22T15:29:32;97246.63;;;29.31;47.62
76052;BME280;64751;48.708;9.710;2023-06-22T15:32:00;97253.09;;;29.44;45.24
76052;BME280;64751;48.708;9.710;2023-06-22T15:34:28;97245.19;;;29.57;45.58
76052;BME280;64751;48.708;9.710;2023-06-22T15:36:56;97247.75;;;29.67;42.62
76052;BME280;64751;48.708;9.710;2023-06-22T15:39:23;97243.03;;;29.71;42.46
76052;BME280;64751;48.708;9.710;2023-06-22T15:41:54;97244.88;;;29.81;42.67
76052;BME280;64751;48.708;9.710;2023-06-22T15:44:22;97247.81;;;29.94;43.55
76052;BME280;64751;48.708;9.710;2023-06-22T15:46:49;97244.94;;;30.04;42.43
76052;BME280;64751;48.708;9.710;2023-06-22T15:49:17;97233.22;;;30.07;41.61
76052;BME280;64751;48.708;9.710;2023-06-22T15:51:44;97231.94;;;30.16;40.39
76052;BME280;64751;48.708;9.710;2023-06-22T15:54:12;97228.31;;;30.22;40.27
76052;BME280;64751;48.708;9.710;2023-06-22T15:56:39;97223.94;;;30.32;41.17
76052;BME280;64751;48.708;9.710;2023-06-22T15:59:08;97232.72;;;30.43;41.39
76052;BME280;64751;48.708;9.710;2023-06-22T16:01:36;97227.97;;;30.47;41.13
76052;BME280;64751;48.708;9.710;2023-06-22T16:04:04;97235.53;;;30.36;41.13
76052;BME280;64751;48.708;9.710;2023-06-22T16:06:31;97227.56;;;30.22;41.62
76052;BME280;64751;48.708;9.710;2023-06-22T16:08:59;97217.69;;;30.04;41.84
76052;BME280;64751;48.708;9.710;2023-06-22T16:11:26;97227.16;;;29.96;43.30
76052;BME280;64751;48.708;9.710;2023-06-22T16:13:55;97229.25;;;29.85;43.79
76052;BME280;64751;48.708;9.710;2023-06-22T16:16:24;97231.34;;;29.71;43.24
76052;BME280;64751;48.708;9.710;2023-06-22T16:18:52;97236.88;;;29.64;43.23
76052;BME280;64751;48.708;9.710;2023-06-22T16:21:20;97234.31;;;29.53;44.40
76052;BME280;64751;48.708;9.710;2023-06-22T16:23:48;97221.66;;;29.39;44.93
76052;BME280;64751;48.708;9.710;2023-06-22T16:26:15;97209.34;;;29.28;46.21
76052;BME280;64751;48.708;9.710;2023-06-22T16:28:43;97189.66;;;29.17;47.40
76052;BME280;64751;48.708;9.710;2023-06-22T16:31:11;97190.22;;;28.98;44.72
76052;BME280;64751;48.708;9.710;2023-06-22T16:33:40;97193.38;;;28.93;44.14
76052;BME280;64751;48.708;9.710;2023-06-22T16:36:13;97219.06;;;28.88;43.42
76052;BME280;64751;48.708;9.710;2023-06-22T16:38:41;97235.03;;;28.86;42.38
76052;BME280;64751;48.708;9.710;2023-06-22T16:41:09;97229.63;;;28.83;41.22
76052;BME280;64751;48.708;9.710;2023-06-22T16:43:37;97219.06;;;28.92;40.04
76052;BME280;64751;48.708;9.710;2023-06-22T16:46:05;97205.81;;;28.94;40.61
76052;BME280;64751;48.708;9.710;2023-06-22T16:48:33;97187.94;;;28.93;39.63
76052;BME280;64751;48.708;9.710;2023-06-22T16:51:02;97172.41;;;28.93;40.19
76052;BME280;64751;48.708;9.710;2023-06-22T16:53:30;97167.00;;;28.90;39.81
76052;BME280;64751;48.708;9.710;2023-06-22T16:55:58;97161.97;;;28.88;40.93
76052;BME280;64751;48.708;9.710;2023-06-22T16:58:26;97155.44;;;28.82;43.10
76052;BME280;64751;48.708;9.710;2023-06-22T17:00:54;97169.91;;;28.72;41.35
76052;BME280;64751;48.708;9.710;2023-06-22T17:03:25;97185.13;;;28.66;40.08
76052;BME280;64751;48.708;9.710;2023-06-22T17:05:55;97182.84;;;28.57;38.04
76052;BME280;64751;48.708;9.710;2023-06-22T17:08:25;97197.59;;;28.56;38.55
76052;BME280;64751;48.708;9.710;2023-06-22T17:10:56;97191.06;;;28.50;39.33
76052;BME280;64751;48.708;9.710;2023-06-22T17:13:23;97207.41;;;28.47;39.30
76052;BME280;64751;48.708;9.710;2023-06-22T17:15:55;97214.84;;;28.39;39.95
76052;BME280;64751;48.708;9.710;2023-06-22T17:18:24;97216.00;;;28.38;39.83
76052;BME280;64751;48.708;9.710;2023-06-22T17:20:52;97216.81;;;28.35;39.87
76052;BME280;64751;48.708;9.710;2023-06-22T17:23:20;97232.69;;;28.37;40.44
76052;BME280;64751;48.708;9.710;2023-06-22T17:25:50;97239.31;;;28.36;39.75
76052;BME280;64751;48.708;9.710;2023-06-22T17:28:19;97241.22;;;28.39;39.96
76052;BME280;64751;48.708;9.710;2023-06-22T17:31:07;97242.38;;;28.41;39.77
76052;BME280;64751;48.708;9.710;2023-06-22T17:33:36;97243.94;;;28.39;40.41
76052;BME280;64751;48.708;9.710;2023-06-22T17:36:06;97246.75;;;28.28;40.05
76052;BME280;64751;48.708;9.710;2023-06-22T17:38:37;97248.72;;;28.24;40.57
76052;BME280;64751;48.708;9.710;2023-06-22T17:41:06;97246.78;;;28.21;41.48
76052;BME280;64751;48.708;9.710;2023-06-22T17:43:43;97251.50;;;28.14;40.81
76052;BME280;64751;48.708;9.710;2023-06-22T17:46:12;97251.16;;;28.08;41.13
76052;BME280;64751;48.708;9.710;2023-06-22T17:48:43;97243.41;;;27.96;41.12
76052;BME280;64751;48.708;9.710;2023-06-22T17:51:14;97253.19;;;27.86;40.92
76052;BME280;64751;48.708;9.710;2023-06-22T17:53:47;97260.22;;;27.77;41.92
76052;BME280;64751;48.708;9.710;2023-06-22T17:56:18;97254.44;;;27.64;42.32
76052;BME280;64751;48.708;9.710;2023-06-22T17:58:52;97269.59;;;27.58;42.24
76052;BME280;64751;48.708;9.710;2023-06-22T18:01:28;97253.34;;;27.44;41.81
76052;BME280;64751;48.708;9.710;2023-06-22T18:03:56;97254.56;;;27.36;42.53
76052;BME280;64751;48.708;9.710;2023-06-22T18:06:26;97256.47;;;27.28;42.80
76052;BME280;64751;48.708;9.710;2023-06-22T18:08:57;97264.25;;;27.23;42.70
76052;BME280;64751;48.708;9.710;2023-06-22T18:11:31;97258.06;;;27.15;43.16
76052;BME280;64751;48.708;9.710;2023-06-22T18:14:01;97267.38;;;27.11;43.18
76052;BME280;64751;48.708;9.710;2023-06-22T18:16:30;97259.25;;;27.07;42.89
76052;BME280;64751;48.708;9.710;2023-06-22T18:18:58;97241.81;;;27.01;43.20
76052;BME280;64751;48.708;9.710;2023-06-22T18:21:27;97253.47;;;26.98;43.57
76052;BME280;64751;48.708;9.710;2023-06-22T18:23:55;97254.63;;;26.90;44.05
76052;BME280;64751;48.708;9.710;2023-06-22T18:26:24;97262.78;;;26.83;44.04
76052;BME280;64751;48.708;9.710;2023-06-22T18:28:56;97273.63;;;26.76;43.47
76052;BME280;64751;48.708;9.710;2023-06-22T18:31:24;97276.69;;;26.71;44.08
76052;BME280;64751;48.708;9.710;2023-06-22T18:33:53;97284.06;;;26.67;44.31
76052;BME280;64751;48.708;9.710;2023-06-22T18:36:24;97265.84;;;26.64;44.16
76052;BME280;64751;48.708;9.710;2023-06-22T18:38:53;97234.09;;;26.61;45.12
76052;BME280;64751;48.708;9.710;2023-06-22T18:41:34;97219.03;;;26.53;45.32
76052;BME280;64751;48.708;9.710;2023-06-22T18:44:04;97234.13;;;26.47;45.23
76052;BME280;64751;48.708;9.710;2023-06-22T18:46:34;97267.41;;;26.44;44.41
76052;BME280;64751;48.708;9.710;2023-06-22T18:49:08;97299.09;;;26.36;44.70
76052;BME280;64751;48.708;9.710;2023-06-22T18:51:49;97292.94;;;26.29;45.34
76052;BME280;64751;48.708;9.710;2023-06-22T18:54:18;97299.09;;;26.26;44.67
76052;BME280;64751;48.708;9.710;2023-06-22T18:56:54;97282.06;;;26.22;44.13
76052;BME280;64751;48.708;9.710;2023-06-22T18:59:46;97274.31;;;26.17;44.80
76052;BME280;64751;48.708;9.710;2023-06-22T19:02:15;97267.75;;;26.14;44.61
76052;BME280;64751;48.708;9.710;2023-06-22T19:05:06;97280.09;;;26.12;50.90
76052;BME280;64751;48.708;9.710;2023-06-22T19:07:56;97287.13;;;26.30;64.30
76052;BME280;64751;48.708;9.710;2023-06-22T19:10:25;97276.31;;;26.34;60.19
76052;BME280;64751;48.708;9.710;2023-06-22T19:12:53;97276.28;;;26.37;66.29
76052;BME280;64751;48.708;9.710;2023-06-22T19:15:29;97282.09;;;26.39;61.56
76052;BME280;64751;48.708;9.710;2023-06-22T19:18:00;97294.84;;;26.39;61.37
76052;BME280;64751;48.708;9.710;2023-06-22T19:20:32;97295.25;;;26.37;63.78
76052;BME280;64751;48.708;9.710;2023-06-22T19:23:00;97301.81;;;26.33;57.60
76052;BME280;64751;48.708;9.710;2023-06-22T19:25:28;97308.38;;;26.32;60.96
76052;BME280;64751;48.708;9.710;2023-06-22T19:27:59;97317.25;;;26.11;46.32
76052;BME280;64751;48.708;9.710;2023-06-22T19:30:30;97322.97;;;25.99;46.60
76052;BME280;64751;48.708;9.710;2023-06-22T19:32:59;97321.03;;;25.96;54.20
76052;BME280;64751;48.708;9.710;2023-06-22T19:35:30;97304.44;;;26.01;59.63
76052;BME280;64751;48.708;9.710;2023-06-22T19:37:58;97279.28;;;26.01;59.97
76052;BME280;64751;48.708;9.710;2023-06-22T19:40:26;97309.44;;;25.96;54.24
76052;BME280;64751;48.708;9.710;2023-06-22T19:42:53;97304.44;;;25.98;61.72
76052;BME280;64751;48.708;9.710;2023-06-22T19:45:22;97304.38;;;25.87;50.43
76052;BME280;64751;48.708;9.710;2023-06-22T19:47:51;97318.63;;;25.66;45.65
76052;BME280;64751;48.708;9.710;2023-06-22T19:50:20;97313.53;;;25.58;48.01
76052;BME280;64751;48.708;9.710;2023-06-22T19:52:48;97331.28;;;25.48;46.27
76052;BME280;64751;48.708;9.710;2023-06-22T19:55:15;97329.25;;;25.38;46.85
76052;BME280;64751;48.708;9.710;2023-06-22T19:57:44;97324.16;;;25.30;48.42
76052;BME280;64751;48.708;9.710;2023-06-22T20:00:13;97332.66;;;25.28;54.97
76052;BME280;64751;48.708;9.710;2023-06-22T20:02:52;97354.34;;;25.35;61.38
76052;BME280;64751;48.708;9.710;2023-06-22T20:05:20;97348.50;;;25.33;58.61
76052;BME280;64751;48.708;9.710;2023-06-22T20:07:48;97341.22;;;25.37;56.37
76052;BME280;64751;48.708;9.710;2023-06-22T20:10:18;97344.63;;;25.24;50.60
76052;BME280;64751;48.708;9.710;2023-06-22T20:12:48;97351.50;;;25.14;48.95
76052;BME280;64751;48.708;9.710;2023-06-22T20:15:21;97346.38;;;25.02;48.32
76052;BME280;64751;48.708;9.710;2023-06-22T20:17:59;97344.34;;;24.88;48.13
76052;BME280;64751;48.708;9.710;2023-06-22T20:20:29;97347.00;;;24.81;48.00
76052;BME280;64751;48.708;9.710;2023-06-22T20:23:01;97353.13;;;24.78;47.62
76052;BME280;64751;48.708;9.710;2023-06-22T20:25:30;97360.06;;;24.76;48.65
76052;BME280;64751;48.708;9.710;2023-06-22T20:28:04;97364.63;;;24.72;48.43
76052;BME280;64751;48.708;9.710;2023-06-22T20:30:32;97380.78;;;24.68;48.38
76052;BME280;64751;48.708;9.710;2023-06-22T20:33:02;97388.50;;;24.66;47.61
76052;BME280;64751;48.708;9.710;2023-06-22T20:35:31;97382.25;;;24.59;48.16
76052;BME280;64751;48.708;9.710;2023-06-22T20:37:59;97395.28;;;24.49;48.05
76052;BME280;64751;48.708;9.710;2023-06-22T20:40:27;97402.59;;;24.45;47.87
76052;BME280;64751;48.708;9.710;2023-06-22T20:42:55;97416.03;;;24.42;47.82
76052;BME280;64751;48.708;9.710;2023-06-22T20:45:23;97413.63;;;24.33;48.38
76052;BME280;64751;48.708;9.710;2023-06-22T20:47:52;97417.44;;;24.29;48.54
76052;BME280;64751;48.708;9.710;2023-06-22T20:50:23;97437.84;;;24.26;48.82
76052;BME280;64751;48.708;9.710;2023-06-22T20:52:56;97433.50;;;24.18;49.95
76052;BME280;64751;48.708;9.710;2023-06-22T20:55:24;97440.72;;;24.11;50.45
76052;BME280;64751;48.708;9.710;2023-06-22T20:57:52;97438.91;;;23.92;51.80
76052;BME280;64751;48.708;9.710;2023-06-22T21:00:21;97431.56;;;23.89;52.92
76052;BME280;64751;48.708;9.710;2023-06-22T21:02:49;97428.34;;;23.80;53.22
76052;BME280;64751;48.708;9.710;2023-06-22T21:05:18;97426.94;;;23.63;54.14
76052;BME280;64751;48.708;9.710;2023-06-22T21:07:48;97453.88;;;23.60;54.57
76052;BME280;64751;48.708;9.710;2023-06-22T21:10:16;97436.41;;;23.54;55.17
76052;BME280;64751;48.708;9.710;2023-06-22T21:12:44;97439.75;;;23.44;55.80
76052;BME280;64751;48.708;9.710;2023-06-22T21:15:11;97450.94;;;23.46;56.25
76052;BME280;64751;48.708;9.710;2023-06-22T21:17:39;97456.53;;;23.34;56.97
76052;BME280;64751;48.708;9.710;2023-06-22T21:20:08;97470.28;;;23.29;57.32
76052;BME280;64751;48.708;9.710;2023-06-22T21:22:35;97479.13;;;23.29;57.73
76052;BME280;64751;48.708;9.710;2023-06-22T21:25:09;97479.03;;;23.22;58.00
76052;BME280;64751;48.708;9.710;2023-06-22T21:27:38;97482.75;;;23.14;58.46
76052;BME280;64751;48.708;9.710;2023-06-22T21:30:09;97495.88;;;23.16;58.59
76052;BME280;64751;48.708;9.710;2023-06-22T21:32:39;97508.56;;;23.15;58.85
76052;BME280;64751;48.708;9.710;2023-06-22T21:35:08;97511.00;;;23.01;59.66
76052;BME280;64751;48.708;9.710;2023-06-22T21:37:37;97520.16;;;22.96;59.97
76052;BME280;64751;48.708;9.710;2023-06-22T21:40:06;97524.50;;;22.82;60.40
76052;BME280;64751;48.708;9.710;2023-06-22T21:42:35;97522.16;;;22.80;60.71
76052;BME280;64751;48.708;9.710;2023-06-22T21:45:03;97519.53;;;22.84;60.74
76052;BME280;64751;48.708;9.710;2023-06-22T21:47:31;97515.28;;;22.83;60.82
76052;BME280;64751;48.708;9.710;2023-06-22T21:49:58;97517.13;;;22.79;60.97
76052;BME280;64751;48.708;9.710;2023-06-22T21:52:26;97521.31;;;22.76;61.01
76052;BME280;64751;48.708;9.710;2023-06-22T21:54:55;97518.34;;;22.81;61.10
76052;BME280;64751;48.708;9.710;2023-06-22T21:57:23;97521.03;;;22.81;61.14
76052;BME280;64751;48.708;9.710;2023-06-22T21:59:54;97525.13;;;22.75;60.94
